sensor_id;sensor_type;location;lat;lon;timestamp;pressure;altitude;pressure_sealevel;temperature;humidity
26823;BME280;14852;51.910;8.878;2023-09-18T00:03:26;99134.91;;;21.65;63.52
26823;BME280;14852;51.910;8.878;2023-09-18T00:06:10;99131.94;;;21.68;63.58
26823;BME280;14852;51.910;8.878;2023-09-18T00:08:48;99140.19;;;21.74;63.60
26823;BME280;14852;51.910;8.878;2023-09-18T00:14:26;99136.03;;;21.95;63.25
26823;BME280;14852;51.910;8.878;2023-09-18T00:17:12;99130.13;;;22.01;62.99
26823;BME280;14852;51.910;8.878;2023-09-18T00:19:42;99128.78;;;22.06;63.17
26823;BME280;14852;51.910;8.878;2023-09-18T00:22:11;99120.00;;;22.05;63.24
26823;BME280;14852;51.910;8.878;2023-09-18T00:24:42;99106.78;;;22.13;62.57
26823;BME280;14852;51.910;8.878;2023-09-18T00:27:10;99089.59;;;22.09;63.17
26823;BME280;14852;51.910;8.878;2023-09-18T00:30:06;99089.41;;;22.11;63.51
26823;BME280;14852;51.910;8.878;2023-09-18T00:32:38;99079.69;;;22.03;63.42
26823;BME280;14852;51.910;8.878;2023-09-18T00:35:37;99070.09;;;22.02;63.87
26823;BME280;14852;51.910;8.878;2023-09-18T00:38:36;99057.84;;;22.09;63.88
26823;BME280;14852;51.910;8.878;2023-09-18T00:41:09;99057.16;;;22.07;64.18
26823;BME280;14852;51.910;8.878;2023-09-18T00:43:37;99045.75;;;22.07;64.22
26823;BME280;14852;51.910;8.878;2023-09-18T00:46:06;99054.06;;;22.03;64.03
26823;BME280;14852;51.910;8.878;2023-09-18T00:48:34;99050.41;;;21.96;63.98
26823;BME280;14852;51.910;8.878;2023-09-18T00:51:03;99046.63;;;21.91;64.05
26823;BME280;14852;51.910;8.878;2023-09-18T00:53:36;99040.19;;;21.85;64.54
26823;BME280;14852;51.910;8.878;2023-09-18T00:56:06;99048.78;;;21.87;64.62
26823;BME280;14852;51.910;8.878;2023-09-18T00:58:33;99043.78;;;21.92;64.47
26823;BME280;14852;51.910;8.878;2023-09-18T01:01:13;99042.16;;;21.99;64.13
26823;BME280;14852;51.910;8.878;2023-09-18T01:03:47;99032.19;;;22.10;63.26
26823;BME280;14852;51.910;8.878;2023-09-18T01:06:44;99026.75;;;22.11;63.30
26823;BME280;14852;51.910;8.878;2023-09-18T01:09:25;99029.38;;;22.11;63.52
26823;BME280;14852;51.910;8.878;2023-09-18T01:12:51;99014.34;;;22.12;63.14
26823;BME280;14852;51.910;8.878;2023-09-18T01:16:02;99020.28;;;22.14;63.50
26823;BME280;14852;51.910;8.878;2023-09-18T01:18:59;99012.69;;;22.11;63.33
26823;BME280;14852;51.910;8.878;2023-09-18T01:21:44;99008.56;;;22.08;63.53
26823;BME280;14852;51.910;8.878;2023-09-18T01:24:38;99012.03;;;22.09;63.37
26823;BME280;14852;51.910;8.878;2023-09-18T01:27:14;99010.22;;;22.09;63.61
26823;BME280;14852;51.910;8.878;2023-09-18T01:29:54;99006.75;;;22.09;63.74
26823;BME280;14852;51.910;8.878;2023-09-18T01:32:32;99002.44;;;22.08;63.59
26823;BME280;14852;51.910;8.878;2023-09-18T01:35:02;99001.44;;;22.09;63.16
26823;BME280;14852;51.910;8.878;2023-09-18T01:37:33;98998.97;;;22.07;63.65
26823;BME280;14852;51.910;8.878;2023-09-18T01:40:03;98987.38;;;22.08;63.68
26823;BME280;14852;51.910;8.878;2023-09-18T01:42:39;98976.97;;;22.07;63.53
26823;BME280;14852;51.910;8.878;2023-09-18T01:45:46;98963.59;;;22.08;63.45
26823;BME280;14852;51.910;8.878;2023-09-18T01:48:46;98964.56;;;22.07;63.47
26823;BME280;14852;51.910;8.878;2023-09-18T01:51:15;98956.53;;;22.00;63.39
26823;BME280;14852;51.910;8.878;2023-09-18T01:54:08;98954.03;;;21.99;63.55
26823;BME280;14852;51.910;8.878;2023-09-18T01:56:52;98954.88;;;21.99;63.21
26823;BME280;14852;51.910;8.878;2023-09-18T01:59:27;98953.53;;;21.95;62.98
26823;BME280;14852;51.910;8.878;2023-09-18T02:01:54;98953.84;;;21.92;63.58
26823;BME280;14852;51.910;8.878;2023-09-18T02:04:35;98958.34;;;21.92;63.45
26823;BME280;14852;51.910;8.878;2023-09-18T02:07:08;98949.75;;;21.90;63.55
26823;BME280;14852;51.910;8.878;2023-09-18T02:10:57;98946.13;;;21.91;63.33
26823;BME280;14852;51.910;8.878;2023-09-18T02:15:20;98942.16;;;21.87;63.11
26823;BME280;14852;51.910;8.878;2023-09-18T02:19:22;98945.97;;;21.84;63.37
26823;BME280;14852;51.910;8.878;2023-09-18T02:22:24;98936.75;;;21.80;63.09
26823;BME280;14852;51.910;8.878;2023-09-18T02:25:22;98934.59;;;21.76;63.57
26823;BME280;14852;51.910;8.878;2023-09-18T02:30:04;98932.63;;;21.78;62.91
26823;BME280;14852;51.910;8.878;2023-09-18T02:33:25;98926.84;;;21.74;63.41
26823;BME280;14852;51.910;8.878;2023-09-18T02:36:23;98923.25;;;21.67;63.63
26823;BME280;14852;51.910;8.878;2023-09-18T02:38:49;98917.28;;;21.65;63.66
26823;BME280;14852;51.910;8.878;2023-09-18T02:41:15;98918.44;;;21.62;63.61
26823;BME280;14852;51.910;8.878;2023-09-18T02:43:41;98921.09;;;21.62;63.61
26823;BME280;14852;51.910;8.878;2023-09-18T02:46:08;98922.75;;;21.63;63.86
26823;BME280;14852;51.910;8.878;2023-09-18T02:48:34;98909.53;;;21.63;63.88
26823;BME280;14852;51.910;8.878;2023-09-18T02:51:01;98905.72;;;21.66;63.84
26823;BME280;14852;51.910;8.878;2023-09-18T02:53:28;98900.28;;;21.67;63.64
26823;BME280;14852;51.910;8.878;2023-09-18T02:55:58;98897.25;;;21.71;64.26
26823;BME280;14852;51.910;8.878;2023-09-18T02:58:25;98894.13;;;21.75;64.24
26823;BME280;14852;51.910;8.878;2023-09-18T03:00:53;98885.84;;;21.78;64.29
26823;BME280;14852;51.910;8.878;2023-09-18T03:03:22;98881.66;;;21.84;63.86
26823;BME280;14852;51.910;8.878;2023-09-18T03:05:48;98877.03;;;21.86;63.86
26823;BME280;14852;51.910;8.878;2023-09-18T03:08:15;98862.66;;;21.88;64.16
26823;BME280;14852;51.910;8.878;2023-09-18T03:10:43;98859.47;;;21.93;64.05
26823;BME280;14852;51.910;8.878;2023-09-18T03:13:11;98851.03;;;21.97;64.21
26823;BME280;14852;51.910;8.878;2023-09-18T03:15:37;98846.06;;;22.02;63.80
26823;BME280;14852;51.910;8.878;2023-09-18T03:18:06;98843.53;;;22.09;63.90
26823;BME280;14852;51.910;8.878;2023-09-18T03:20:33;98843.03;;;22.14;63.68
26823;BME280;14852;51.910;8.878;2023-09-18T03:23:01;98839.81;;;22.18;63.74
26823;BME280;14852;51.910;8.878;2023-09-18T03:25:28;98833.38;;;22.21;63.94
26823;BME280;14852;51.910;8.878;2023-09-18T03:27:56;98840.78;;;22.25;63.69
26823;BME280;14852;51.910;8.878;2023-09-18T03:30:27;98831.66;;;22.28;63.77
26823;BME280;14852;51.910;8.878;2023-09-18T03:32:53;98824.19;;;22.31;63.36
26823;BME280;14852;51.910;8.878;2023-09-18T03:35:20;98814.41;;;22.32;63.73
26823;BME280;14852;51.910;8.878;2023-09-18T03:37:50;98804.31;;;22.35;63.77
26823;BME280;14852;51.910;8.878;2023-09-18T03:40:17;98811.25;;;22.36;63.26
26823;BME280;14852;51.910;8.878;2023-09-18T03:42:44;98807.59;;;22.37;63.54
26823;BME280;14852;51.910;8.878;2023-09-18T03:45:11;98787.88;;;22.40;63.34
26823;BME280;14852;51.910;8.878;2023-09-18T03:47:39;98786.53;;;22.44;63.62
26823;BME280;14852;51.910;8.878;2023-09-18T03:50:07;98782.88;;;22.45;63.59
26823;BME280;14852;51.910;8.878;2023-09-18T03:52:33;98775.41;;;22.49;63.23
26823;BME280;14852;51.910;8.878;2023-09-18T03:54:59;98771.78;;;22.50;63.00
26823;BME280;14852;51.910;8.878;2023-09-18T03:57:25;98766.91;;;22.53;63.10
26823;BME280;14852;51.910;8.878;2023-09-18T03:59:51;98758.78;;;22.55;63.44
26823;BME280;14852;51.910;8.878;2023-09-18T04:02:17;98753.31;;;22.56;62.92
26823;BME280;14852;51.910;8.878;2023-09-18T04:04:43;98758.09;;;22.61;62.90
26823;BME280;14852;51.910;8.878;2023-09-18T04:07:09;98741.00;;;22.63;62.93
26823;BME280;14852;51.910;8.878;2023-09-18T04:09:35;98737.16;;;22.66;63.03
26823;BME280;14852;51.910;8.878;2023-09-18T04:12:03;98731.69;;;22.67;63.02
26823;BME280;14852;51.910;8.878;2023-09-18T04:14:31;98735.16;;;22.68;62.57
26823;BME280;14852;51.910;8.878;2023-09-18T04:16:57;98751.69;;;22.70;62.64
26823;BME280;14852;51.910;8.878;2023-09-18T04:19:23;98763.13;;;22.70;62.99
26823;BME280;14852;51.910;8.878;2023-09-18T04:21:49;98755.81;;;22.72;62.61
26823;BME280;14852;51.910;8.878;2023-09-18T04:24:15;98736.47;;;22.72;62.89
26823;BME280;14852;51.910;8.878;2023-09-18T04:26:41;98747.88;;;22.72;62.49
26823;BME280;14852;51.910;8.878;2023-09-18T04:29:07;98731.63;;;22.75;62.54
26823;BME280;14852;51.910;8.878;2023-09-18T04:31:32;98726.78;;;22.79;62.65
26823;BME280;14852;51.910;8.878;2023-09-18T04:33:59;98717.03;;;22.80;62.25
26823;BME280;14852;51.910;8.878;2023-09-18T04:36:25;98715.66;;;22.84;62.64
26823;BME280;14852;51.910;8.878;2023-09-18T04:38:51;98718.91;;;22.86;62.05
26823;BME280;14852;51.910;8.878;2023-09-18T04:41:17;98711.44;;;22.89;61.99
26823;BME280;14852;51.910;8.878;2023-09-18T04:43:43;98721.03;;;22.90;62.42
26823;BME280;14852;51.910;8.878;2023-09-18T04:46:10;98720.84;;;22.92;62.33
26823;BME280;14852;51.910;8.878;2023-09-18T04:48:35;98722.50;;;22.93;62.39
26823;BME280;14852;51.910;8.878;2023-09-18T04:51:03;98727.44;;;22.96;62.54
26823;BME280;14852;51.910;8.878;2023-09-18T04:53:32;98719.28;;;22.97;61.87
26823;BME280;14852;51.910;8.878;2023-09-18T04:55:58;98709.59;;;23.04;61.91
26823;BME280;14852;51.910;8.878;2023-09-18T04:58:24;98702.91;;;23.08;61.62
26823;BME280;14852;51.910;8.878;2023-09-18T05:00:58;98691.59;;;23.15;61.50
26823;BME280;14852;51.910;8.878;2023-09-18T05:03:26;98693.22;;;23.16;61.19
26823;BME280;14852;51.910;8.878;2023-09-18T05:05:55;98697.72;;;23.15;61.27
26823;BME280;14852;51.910;8.878;2023-09-18T05:08:20;98705.66;;;23.15;61.68
26823;BME280;14852;51.910;8.878;2023-09-18T05:10:46;98700.06;;;23.10;61.46
26823;BME280;14852;51.910;8.878;2023-09-18T05:13:13;98703.31;;;23.05;61.54
26823;BME280;14852;51.910;8.878;2023-09-18T05:15:39;98690.59;;;23.01;61.85
26823;BME280;14852;51.910;8.878;2023-09-18T05:18:05;98696.25;;;22.98;61.98
26823;BME280;14852;51.910;8.878;2023-09-18T05:20:31;98703.97;;;22.93;62.19
26823;BME280;14852;51.910;8.878;2023-09-18T05:22:58;98705.31;;;22.89;61.65
26823;BME280;14852;51.910;8.878;2023-09-18T05:25:26;98696.91;;;22.85;61.87
26823;BME280;14852;51.910;8.878;2023-09-18T05:27:53;98683.25;;;22.82;61.70
26823;BME280;14852;51.910;8.878;2023-09-18T05:30:34;98674.09;;;22.84;62.32
26823;BME280;14852;51.910;8.878;2023-09-18T05:33:02;98673.06;;;22.85;62.04
26823;BME280;14852;51.910;8.878;2023-09-18T05:35:40;98672.06;;;22.86;61.87
26823;BME280;14852;51.910;8.878;2023-09-18T05:38:07;98656.00;;;22.88;61.99
26823;BME280;14852;51.910;8.878;2023-09-18T05:40:32;98650.34;;;22.91;62.04
26823;BME280;14852;51.910;8.878;2023-09-18T05:42:58;98650.97;;;22.93;61.82
26823;BME280;14852;51.910;8.878;2023-09-18T05:45:24;98660.81;;;22.99;61.45
26823;BME280;14852;51.910;8.878;2023-09-18T05:47:52;98644.75;;;23.00;61.34
26823;BME280;14852;51.910;8.878;2023-09-18T05:50:27;98638.50;;;23.08;61.62
26823;BME280;14852;51.910;8.878;2023-09-18T05:52:55;98632.47;;;23.14;61.61
26823;BME280;14852;51.910;8.878;2023-09-18T05:55:26;98634.16;;;23.22;61.29
26823;BME280;14852;51.910;8.878;2023-09-18T05:57:53;98635.50;;;23.32;61.01
26823;BME280;14852;51.910;8.878;2023-09-18T06:00:20;98629.09;;;23.41;60.51
26823;BME280;14852;51.910;8.878;2023-09-18T06:02:46;98633.28;;;23.51;60.78
26823;BME280;14852;51.910;8.878;2023-09-18T06:05:12;98640.91;;;23.60;60.20
26823;BME280;14852;51.910;8.878;2023-09-18T06:07:38;98647.91;;;23.68;60.49
26823;BME280;14852;51.910;8.878;2023-09-18T06:10:04;98634.06;;;23.72;60.22
26823;BME280;14852;51.910;8.878;2023-09-18T06:12:30;98636.78;;;23.79;60.02
26823;BME280;14852;51.910;8.878;2023-09-18T06:14:56;98636.25;;;23.90;59.91
26823;BME280;14852;51.910;8.878;2023-09-18T06:17:22;98629.19;;;23.97;59.71
26823;BME280;14852;51.910;8.878;2023-09-18T06:19:47;98619.38;;;23.98;59.38
26823;BME280;14852;51.910;8.878;2023-09-18T06:22:14;98607.34;;;24.02;59.90
26823;BME280;14852;51.910;8.878;2023-09-18T06:24:39;98621.50;;;24.09;59.50
26823;BME280;14852;51.910;8.878;2023-09-18T06:27:06;98626.84;;;24.15;59.16
26823;BME280;14852;51.910;8.878;2023-09-18T06:29:35;98621.41;;;24.24;59.20
26823;BME280;14852;51.910;8.878;2023-09-18T06:32:03;98634.94;;;24.29;58.68
26823;BME280;14852;51.910;8.878;2023-09-18T06:34:29;98656.41;;;24.34;58.36
26823;BME280;14852;51.910;8.878;2023-09-18T06:36:55;98643.53;;;24.37;58.68
26823;BME280;14852;51.910;8.878;2023-09-18T06:39:21;98640.69;;;24.39;58.45
26823;BME280;14852;51.910;8.878;2023-09-18T06:41:49;98645.63;;;24.42;58.70
26823;BME280;14852;51.910;8.878;2023-09-18T06:44:15;98657.50;;;24.46;58.64
26823;BME280;14852;51.910;8.878;2023-09-18T06:46:41;98672.25;;;24.55;58.40
26823;BME280;14852;51.910;8.878;2023-09-18T06:49:07;98670.09;;;24.72;57.71
26823;BME280;14852;51.910;8.878;2023-09-18T06:51:33;98678.47;;;25.10;56.57
26823;BME280;14852;51.910;8.878;2023-09-18T06:53:59;98664.59;;;25.21;56.87
26823;BME280;14852;51.910;8.878;2023-09-18T06:56:28;98664.59;;;25.21;56.84
26823;BME280;14852;51.910;8.878;2023-09-18T06:58:54;98669.47;;;25.17;56.54
26823;BME280;14852;51.910;8.878;2023-09-18T07:01:21;98654.34;;;25.18;56.78
26823;BME280;14852;51.910;8.878;2023-09-18T07:03:48;98659.09;;;25.22;56.47
26823;BME280;14852;51.910;8.878;2023-09-18T07:06:14;98658.91;;;25.37;56.66
26823;BME280;14852;51.910;8.878;2023-09-18T07:08:46;98655.50;;;25.89;55.69
26823;BME280;14852;51.910;8.878;2023-09-18T07:11:15;98647.72;;;26.41;53.83
26823;BME280;14852;51.910;8.878;2023-09-18T07:13:41;98649.81;;;26.83;53.27
26823;BME280;14852;51.910;8.878;2023-09-18T07:16:09;98652.81;;;27.07;52.63
26823;BME280;14852;51.910;8.878;2023-09-18T07:18:35;98654.75;;;27.31;52.53
26823;BME280;14852;51.910;8.878;2023-09-18T07:21:00;98655.84;;;27.55;51.87
26823;BME280;14852;51.910;8.878;2023-09-18T07:23:26;98657.22;;;27.26;51.96
26823;BME280;14852;51.910;8.878;2023-09-18T07:25:52;98667.41;;;27.42;51.75
26823;BME280;14852;51.910;8.878;2023-09-18T07:28:18;98668.94;;;27.63;51.22
26823;BME280;14852;51.910;8.878;2023-09-18T07:30:46;98672.81;;;28.17;50.33
26823;BME280;14852;51.910;8.878;2023-09-18T07:33:14;98681.44;;;28.98;48.66
26823;BME280;14852;51.910;8.878;2023-09-18T07:35:50;98676.41;;;30.56;46.70
26823;BME280;14852;51.910;8.878;2023-09-18T07:38:18;98674.97;;;31.17;44.60
26823;BME280;14852;51.910;8.878;2023-09-18T07:40:47;98674.41;;;30.40;45.87
26823;BME280;14852;51.910;8.878;2023-09-18T07:43:13;98691.53;;;30.16;46.61
26823;BME280;14852;51.910;8.878;2023-09-18T07:45:40;98692.09;;;30.76;45.39
26823;BME280;14852;51.910;8.878;2023-09-18T07:48:07;98687.91;;;30.45;45.92
26823;BME280;14852;51.910;8.878;2023-09-18T07:50:34;98703.16;;;29.98;47.29
26823;BME280;14852;51.910;8.878;2023-09-18T07:53:01;98712.69;;;29.52;48.36
26823;BME280;14852;51.910;8.878;2023-09-18T07:55:28;98704.84;;;29.03;49.20
26823;BME280;14852;51.910;8.878;2023-09-18T07:57:55;98697.28;;;28.81;50.10
26823;BME280;14852;51.910;8.878;2023-09-18T08:00:21;98707.41;;;28.55;49.96
26823;BME280;14852;51.910;8.878;2023-09-18T08:02:53;98720.59;;;28.31;50.23
26823;BME280;14852;51.910;8.878;2023-09-18T08:05:21;98699.47;;;27.98;50.31
26823;BME280;14852;51.910;8.878;2023-09-18T08:07:47;98694.91;;;27.81;50.94
26823;BME280;14852;51.910;8.878;2023-09-18T08:10:13;98688.22;;;27.65;51.21
26823;BME280;14852;51.910;8.878;2023-09-18T08:12:39;98701.19;;;27.55;50.93
26823;BME280;14852;51.910;8.878;2023-09-18T08:15:05;98702.91;;;27.43;51.15
26823;BME280;14852;51.910;8.878;2023-09-18T08:17:32;98698.44;;;27.30;50.90
26823;BME280;14852;51.910;8.878;2023-09-18T08:19:58;98689.88;;;27.21;51.31
26823;BME280;14852;51.910;8.878;2023-09-18T08:22:24;98694.34;;;27.34;50.45
26823;BME280;14852;51.910;8.878;2023-09-18T08:24:50;98693.88;;;27.37;50.23
26823;BME280;14852;51.910;8.878;2023-09-18T08:27:19;98675.28;;;27.30;50.32
26823;BME280;14852;51.910;8.878;2023-09-18T08:29:45;98693.13;;;27.23;50.67
26823;BME280;14852;51.910;8.878;2023-09-18T08:32:12;98692.56;;;27.15;50.36
26823;BME280;14852;51.910;8.878;2023-09-18T08:34:38;98698.56;;;27.10;50.51
26823;BME280;14852;51.910;8.878;2023-09-18T08:37:04;98690.38;;;27.05;50.84
26823;BME280;14852;51.910;8.878;2023-09-18T08:39:30;98696.94;;;27.02;50.62
26823;BME280;14852;51.910;8.878;2023-09-18T08:42:03;98686.47;;;27.01;50.93
26823;BME280;14852;51.910;8.878;2023-09-18T08:44:30;98701.84;;;27.06;51.05
26823;BME280;14852;51.910;8.878;2023-09-18T08:46:56;98702.47;;;27.01;50.74
26823;BME280;14852;51.910;8.878;2023-09-18T08:49:24;98710.09;;;26.97;50.79
26823;BME280;14852;51.910;8.878;2023-09-18T08:51:51;98717.88;;;26.92;50.91
26823;BME280;14852;51.910;8.878;2023-09-18T08:54:19;98726.09;;;26.84;50.71
26823;BME280;14852;51.910;8.878;2023-09-18T08:56:46;98730.59;;;26.77;51.10
26823;BME280;14852;51.910;8.878;2023-09-18T08:59:12;98715.47;;;26.71;51.24
26823;BME280;14852;51.910;8.878;2023-09-18T09:01:39;98708.09;;;26.73;50.86
26823;BME280;14852;51.910;8.878;2023-09-18T09:04:05;98722.03;;;26.75;50.87
26823;BME280;14852;51.910;8.878;2023-09-18T09:06:31;98722.59;;;26.77;51.40
26823;BME280;14852;51.910;8.878;2023-09-18T09:08:57;98713.81;;;26.70;50.81
26823;BME280;14852;51.910;8.878;2023-09-18T09:11:23;98723.66;;;26.69;51.02
26823;BME280;14852;51.910;8.878;2023-09-18T09:14:12;98717.09;;;26.65;51.29
26823;BME280;14852;51.910;8.878;2023-09-18T09:16:50;98727.34;;;26.68;50.99
26823;BME280;14852;51.910;8.878;2023-09-18T09:19:17;98724.06;;;26.66;50.99
26823;BME280;14852;51.910;8.878;2023-09-18T09:21:44;98714.03;;;26.68;50.78
26823;BME280;14852;51.910;8.878;2023-09-18T09:24:11;98716.06;;;26.73;50.57
26823;BME280;14852;51.910;8.878;2023-09-18T09:26:41;98730.81;;;26.82;50.23
26823;BME280;14852;51.910;8.878;2023-09-18T09:29:19;98723.22;;;26.92;50.43
26823;BME280;14852;51.910;8.878;2023-09-18T09:31:46;98721.38;;;26.99;50.02
26823;BME280;14852;51.910;8.878;2023-09-18T09:34:15;98711.69;;;27.05;49.83
26823;BME280;14852;51.910;8.878;2023-09-18T09:36:56;98728.91;;;27.09;49.89
26823;BME280;14852;51.910;8.878;2023-09-18T09:39:22;98726.47;;;27.01;50.07
26823;BME280;14852;51.910;8.878;2023-09-18T09:41:52;98721.38;;;26.99;50.25
26823;BME280;14852;51.910;8.878;2023-09-18T09:44:18;98717.22;;;27.03;50.03
26823;BME280;14852;51.910;8.878;2023-09-18T09:46:48;98716.41;;;27.10;49.74
26823;BME280;14852;51.910;8.878;2023-09-18T09:49:15;98719.44;;;27.13;49.71
26823;BME280;14852;51.910;8.878;2023-09-18T09:51:42;98731.75;;;27.21;49.57
26823;BME280;14852;51.910;8.878;2023-09-18T09:54:08;98722.50;;;27.17;49.30
26823;BME280;14852;51.910;8.878;2023-09-18T09:56:49;98739.09;;;27.25;49.24
26823;BME280;14852;51.910;8.878;2023-09-18T09:59:18;98733.38;;;27.22;48.93
26823;BME280;14852;51.910;8.878;2023-09-18T10:01:47;98724.56;;;27.21;49.11
26823;BME280;14852;51.910;8.878;2023-09-18T10:04:16;98731.53;;;27.22;49.12
26823;BME280;14852;51.910;8.878;2023-09-18T10:06:45;98734.19;;;27.22;49.57
26823;BME280;14852;51.910;8.878;2023-09-18T10:09:14;98735.03;;;27.23;49.12
26823;BME280;14852;51.910;8.878;2023-09-18T10:11:44;98742.16;;;27.29;49.25
26823;BME280;14852;51.910;8.878;2023-09-18T10:14:19;98736.56;;;27.37;49.33
26823;BME280;14852;51.910;8.878;2023-09-18T10:16:50;98740.41;;;27.48;49.01
26823;BME280;14852;51.910;8.878;2023-09-18T10:19:35;98726.44;;;27.52;49.22
26823;BME280;14852;51.910;8.878;2023-09-18T10:22:33;98718.41;;;27.59;48.64
26823;BME280;14852;51.910;8.878;2023-09-18T10:25:23;98723.53;;;27.60;48.79
26823;BME280;14852;51.910;8.878;2023-09-18T10:27:51;98730.91;;;27.65;48.69
26823;BME280;14852;51.910;8.878;2023-09-18T10:30:24;98735.22;;;27.66;48.71
26823;BME280;14852;51.910;8.878;2023-09-18T10:32:51;98746.94;;;27.65;48.47
26823;BME280;14852;51.910;8.878;2023-09-18T10:35:17;98758.25;;;27.60;48.39
26823;BME280;14852;51.910;8.878;2023-09-18T10:37:46;98771.97;;;27.64;48.83
26823;BME280;14852;51.910;8.878;2023-09-18T10:40:13;98775.81;;;27.74;48.57
26823;BME280;14852;51.910;8.878;2023-09-18T10:42:41;98760.81;;;27.80;48.16
26823;BME280;14852;51.910;8.878;2023-09-18T10:45:10;98769.03;;;27.79;48.12
26823;BME280;14852;51.910;8.878;2023-09-18T10:47:39;98767.81;;;27.74;47.84
26823;BME280;14852;51.910;8.878;2023-09-18T10:50:06;98765.56;;;27.71;48.21
26823;BME280;14852;51.910;8.878;2023-09-18T10:52:43;98763.72;;;27.72;48.46
26823;BME280;14852;51.910;8.878;2023-09-18T10:55:12;98778.06;;;27.78;47.92
26823;BME280;14852;51.910;8.878;2023-09-18T10:57:56;98778.00;;;27.91;48.01
26823;BME280;14852;51.910;8.878;2023-09-18T11:00:26;98780.00;;;27.95;47.71
26823;BME280;14852;51.910;8.878;2023-09-18T11:02:53;98772.19;;;28.00;47.44
26823;BME280;14852;51.910;8.878;2023-09-18T11:05:34;98742.81;;;27.94;47.77
26823;BME280;14852;51.910;8.878;2023-09-18T11:08:45;98745.63;;;27.81;47.64
26823;BME280;14852;51.910;8.878;2023-09-18T11:11:13;98739.47;;;27.73;47.58
26823;BME280;14852;51.910;8.878;2023-09-18T11:13:45;98760.00;;;27.80;47.84
26823;BME280;14852;51.910;8.878;2023-09-18T11:19:16;98762.88;;;27.78;47.57
26823;BME280;14852;51.910;8.878;2023-09-18T11:21:43;98777.50;;;27.69;47.78
26823;BME280;14852;51.910;8.878;2023-09-18T11:24:20;98783.47;;;27.64;47.59
26823;BME280;14852;51.910;8.878;2023-09-18T11:26:49;98773.06;;;27.56;48.06
26823;BME280;14852;51.910;8.878;2023-09-18T11:29:17;98777.16;;;27.52;48.11
26823;BME280;14852;51.910;8.878;2023-09-18T11:31:53;98780.25;;;27.56;48.26
26823;BME280;14852;51.910;8.878;2023-09-18T11:34:24;98773.22;;;27.61;47.74
26823;BME280;14852;51.910;8.878;2023-09-18T11:36:52;98789.63;;;27.65;48.24
26823;BME280;14852;51.910;8.878;2023-09-18T11:39:39;98781.66;;;27.58;47.81
26823;BME280;14852;51.910;8.878;2023-09-18T11:42:13;98784.94;;;27.54;48.32
26823;BME280;14852;51.910;8.878;2023-09-18T11:44:40;98778.91;;;27.71;47.53
26823;BME280;14852;51.910;8.878;2023-09-18T11:47:21;98780.22;;;27.94;47.14
26823;BME280;14852;51.910;8.878;2023-09-18T11:49:49;98776.63;;;28.06;47.01
26823;BME280;14852;51.910;8.878;2023-09-18T11:52:25;98770.63;;;28.18;46.85
26823;BME280;14852;51.910;8.878;2023-09-18T11:54:51;98782.94;;;28.19;46.46
26823;BME280;14852;51.910;8.878;2023-09-18T11:57:18;98780.09;;;28.14;46.77
26823;BME280;14852;51.910;8.878;2023-09-18T11:59:47;98766.34;;;28.10;46.78
26823;BME280;14852;51.910;8.878;2023-09-18T12:02:28;98765.75;;;28.08;47.06
26823;BME280;14852;51.910;8.878;2023-09-18T12:04:59;98768.00;;;28.11;46.89
26823;BME280;14852;51.910;8.878;2023-09-18T12:07:32;98759.72;;;28.19;46.87
26823;BME280;14852;51.910;8.878;2023-09-18T12:09:57;98766.06;;;28.25;46.64
26823;BME280;14852;51.910;8.878;2023-09-18T12:12:23;98770.75;;;28.29;46.88
26823;BME280;14852;51.910;8.878;2023-09-18T12:14:52;98773.91;;;28.20;46.28
26823;BME280;14852;51.910;8.878;2023-09-18T12:17:18;98779.06;;;28.15;45.85
26823;BME280;14852;51.910;8.878;2023-09-18T12:19:54;98772.91;;;28.14;46.44
26823;BME280;14852;51.910;8.878;2023-09-18T12:22:28;98765.31;;;28.11;46.59
26823;BME280;14852;51.910;8.878;2023-09-18T12:25:09;98777.47;;;28.07;46.42
26823;BME280;14852;51.910;8.878;2023-09-18T12:27:38;98769.16;;;27.90;46.48
26823;BME280;14852;51.910;8.878;2023-09-18T12:30:06;98774.16;;;27.80;46.45
26823;BME280;14852;51.910;8.878;2023-09-18T12:32:32;98758.34;;;27.79;46.42
26823;BME280;14852;51.910;8.878;2023-09-18T12:35:03;98763.47;;;27.80;46.71
26823;BME280;14852;51.910;8.878;2023-09-18T12:37:34;98760.34;;;27.83;46.84
26823;BME280;14852;51.910;8.878;2023-09-18T12:40:00;98762.19;;;27.89;46.39
26823;BME280;14852;51.910;8.878;2023-09-18T12:42:26;98754.59;;;27.86;46.34
26823;BME280;14852;51.910;8.878;2023-09-18T12:44:52;98755.84;;;27.84;46.38
26823;BME280;14852;51.910;8.878;2023-09-18T12:47:20;98742.34;;;27.79;46.33
26823;BME280;14852;51.910;8.878;2023-09-18T12:49:46;98744.41;;;27.77;46.60
26823;BME280;14852;51.910;8.878;2023-09-18T12:52:12;98733.06;;;27.81;46.08
26823;BME280;14852;51.910;8.878;2023-09-18T12:54:44;98735.44;;;27.96;46.60
26823;BME280;14852;51.910;8.878;2023-09-18T12:57:16;98738.59;;;28.11;46.19
26823;BME280;14852;51.910;8.878;2023-09-18T12:59:42;98738.97;;;28.21;45.76
26823;BME280;14852;51.910;8.878;2023-09-18T13:02:07;98734.00;;;28.25;45.59
26823;BME280;14852;51.910;8.878;2023-09-18T13:04:35;98747.09;;;28.33;45.71
26823;BME280;14852;51.910;8.878;2023-09-18T13:07:14;98740.00;;;28.45;45.26
26823;BME280;14852;51.910;8.878;2023-09-18T13:09:57;98733.81;;;28.44;44.95
26823;BME280;14852;51.910;8.878;2023-09-18T13:12:23;98732.72;;;28.52;44.95
26823;BME280;14852;51.910;8.878;2023-09-18T13:15:00;98728.88;;;28.66;44.91
26823;BME280;14852;51.910;8.878;2023-09-18T13:17:45;98724.75;;;28.70;44.34
26823;BME280;14852;51.910;8.878;2023-09-18T13:22:41;98720.25;;;28.64;44.46
26823;BME280;14852;51.910;8.878;2023-09-18T13:25:09;98715.88;;;28.52;44.80
26823;BME280;14852;51.910;8.878;2023-09-18T13:27:37;98713.75;;;28.60;44.93
26823;BME280;14852;51.910;8.878;2023-09-18T13:30:08;98722.59;;;28.61;44.47
26823;BME280;14852;51.910;8.878;2023-09-18T13:32:36;98722.72;;;28.48;44.67
26823;BME280;14852;51.910;8.878;2023-09-18T13:35:05;98722.72;;;28.48;44.30
26823;BME280;14852;51.910;8.878;2023-09-18T13:37:33;98723.06;;;28.51;44.37